Time;durP1;ratioP1;P1;durP2;ratioP2;P2;SDS_P1;SDS_P2;PMS_P1;PMS_P2;Temp;Humidity;BMP_temperature;BMP_pressure;BME280_temperature;BME280_humidity;BME280_pressure;Samples;Min_cycle;Max_cycle;Signal;HPM_P1;HPM_P2
2023/12/18 00:01:10;;;;;;;;;;;;;;;6.30;88.65;101990.83;104918;1289;72931;-55
2023/12/18 00:03:58;;;;;;;;;;;;;;;6.32;88.81;101995.34;104956;1288;72716;-55
2023/12/18 00:06:44;;;;;;;;;;;;;;;6.33;87.79;101992.64;104967;1288;60376;-55
2023/12/18 00:09:31;;;;;;;;;;;;;;;6.37;87.90;101986.90;104945;1288;59305;-54
2023/12/18 00:12:17;;;;;;;;;;;;;;;6.40;87.95;101983.02;105043;1288;75254;-54
2023/12/18 00:15:03;;;;;;;;;;;;;;;6.43;87.73;101984.46;104903;1289;69983;-55
2023/12/18 00:17:49;;;;;;;;;;;;;;;6.45;87.18;101982.63;102246;1289;5004358;-56
2023/12/18 00:20:35;;;;;;;;;;;;;;;6.48;88.01;101984.92;106296;1289;58559;-55
2023/12/18 00:23:21;;;;;;;;;;;;;;;6.49;87.89;101980.66;106331;1288;58610;-56
2023/12/18 00:26:07;;;;;;;;;;;;;;;6.49;87.40;101978.79;106298;1288;72642;-56
2023/12/18 00:28:52;;;;;;;;;;;;;;;6.51;87.35;101976.59;106300;1288;68469;-55
2023/12/18 00:31:38;;;;;;;;;;;;;;;6.52;87.40;101967.70;106293;1288;71190;-56
2023/12/18 00:34:24;;;;;;;;;;;;;;;6.53;87.95;101970.48;105554;1288;60478;-56
2023/12/18 00:37:11;;;;;;;;;;;;;;;6.54;86.97;101966.22;104939;1289;59777;-55
2023/12/18 00:39:57;;;;;;;;;;;;;;;6.56;86.99;101961.12;104963;1292;74075;-55
2023/12/18 00:42:43;;;;;;;;;;;;;;;6.56;87.30;101962.15;105001;1289;67847;-55
2023/12/18 00:45:29;;;;;;;;;;;;;;;6.57;87.83;101965.25;104955;1289;72413;-55
2023/12/18 00:48:15;;;;;;;;;;;;;;;6.56;87.33;101963.16;104911;1288;60504;-52
2023/12/18 00:51:01;;;;;;;;;;;;;;;6.55;86.27;101958.54;104897;1288;60322;-55
2023/12/18 00:53:48;;;;;;;;;;;;;;;6.56;86.65;101958.55;104945;1289;72450;-55
2023/12/18 00:56:36;;;;;;;;;;;;;;;6.56;87.66;101959.58;104947;1289;70013;-55
2023/12/18 00:59:22;;;;;;;;;;;;;;;6.54;86.61;101960.73;104906;1289;71263;-55
2023/12/18 01:02:08;;;;;;;;;;;;;;;6.53;86.67;101956.42;104910;1289;60584;-54
2023/12/18 01:04:54;;;;;;;;;;;;;;;6.53;86.43;101954.21;104932;1288;60315;-55
2023/12/18 01:07:41;;;;;;;;;;;;;;;6.55;87.23;101950.81;104965;1289;72261;-56
2023/12/18 01:10:27;;;;;;;;;;;;;;;6.55;87.42;101944.13;104915;1289;71505;-55
2023/12/18 01:13:13;;;;;;;;;;;;;;;6.52;86.53;101947.84;104891;1289;71148;-54
2023/12/18 01:16:00;;;;;;;;;;;;;;;6.53;87.03;101946.14;104827;1289;60438;-52
2023/12/18 01:18:46;;;;;;;;;;;;;;;6.52;85.98;101950.24;104935;1289;60572;-54
2023/12/18 01:21:32;;;;;;;;;;;;;;;6.52;86.36;101943.05;104906;1289;76534;-52
2023/12/18 01:24:18;;;;;;;;;;;;;;;6.53;86.12;101946.33;104853;1289;69041;-55
2023/12/18 01:27:04;;;;;;;;;;;;;;;6.53;86.59;101953.19;104925;1289;71453;-55
2023/12/18 01:29:51;;;;;;;;;;;;;;;6.54;86.36;101948.06;104884;1289;59672;-55
2023/12/18 01:32:37;;;;;;;;;;;;;;;6.55;85.77;101949.79;104960;1289;60351;-54
2023/12/18 01:35:23;;;;;;;;;;;;;;;6.56;85.67;101952.22;104884;1291;74461;-55
2023/12/18 01:38:09;;;;;;;;;;;;;;;6.56;86.33;101957.69;104955;1289;67296;-56
2023/12/18 01:40:55;;;;;;;;;;;;;;;6.54;86.87;101957.31;104889;1289;71293;-54
2023/12/18 01:43:42;;;;;;;;;;;;;;;6.54;86.95;101958.34;104956;1288;60351;-54
2023/12/18 01:46:28;;;;;;;;;;;;;;;6.52;86.45;101960.52;105008;1289;60485;-55
2023/12/18 01:49:14;;;;;;;;;;;;;;;6.52;85.94;101964.45;104939;1288;72457;-55
2023/12/18 01:52:00;;;;;;;;;;;;;;;6.53;85.78;101965.52;104937;1289;67185;-55
2023/12/18 01:54:47;;;;;;;;;;;;;;;6.54;86.38;101966.56;104778;1289;71170;-55
2023/12/18 01:57:33;;;;;;;;;;;;;;;6.55;86.33;101966.58;104893;1289;60360;-55
2023/12/18 02:00:20;;;;;;;;;;;;;;;6.53;85.89;101970.13;104895;1289;59156;-54
2023/12/18 02:03:08;;;;;;;;;;;;;;;6.54;85.18;101963.30;104867;1289;72161;-55
2023/12/18 02:05:55;;;;;;;;;;;;;;;6.55;85.45;101965.39;104866;1291;71074;-53
2023/12/18 02:08:41;;;;;;;;;;;;;;;6.56;85.35;101970.20;104821;1290;71601;-55
2023/12/18 02:11:27;;;;;;;;;;;;;;;6.55;85.27;101966.59;104813;1289;60511;-55
2023/12/18 02:14:13;;;;;;;;;;;;;;;6.56;85.27;101964.73;104869;1289;61594;-56
2023/12/18 02:16:59;;;;;;;;;;;;;;;6.56;84.94;101962.16;104831;1289;73160;-55
2023/12/18 02:19:45;;;;;;;;;;;;;;;6.56;84.44;101955.98;104890;1289;67318;-55
2023/12/18 02:22:47;;;;;;;;;;;;;;;6.57;84.88;101947.95;104849;1289;71246;-55
2023/12/18 02:25:33;;;;;;;;;;;;;;;6.55;85.07;101941.06;104809;1292;60236;-55
2023/12/18 02:28:19;;;;;;;;;;;;;;;6.56;85.19;101939.19;104838;1294;60205;-55
2023/12/18 02:31:07;;;;;;;;;;;;;;;6.55;84.32;101937.11;104916;1289;72429;-54
2023/12/18 02:33:53;;;;;;;;;;;;;;;6.55;84.21;101931.45;104859;1294;67772;-52
2023/12/18 02:36:39;;;;;;;;;;;;;;;6.55;84.59;101930.61;104836;1289;75328;-55
2023/12/18 02:39:25;;;;;;;;;;;;;;;6.56;84.50;101930.46;104901;1292;62690;-54
2023/12/18 02:42:11;;;;;;;;;;;;;;;6.56;84.60;101929.77;104828;1289;61452;-56
2023/12/18 02:44:58;;;;;;;;;;;;;;;6.55;84.43;101927.02;104859;1289;74285;-55
2023/12/18 02:47:44;;;;;;;;;;;;;;;6.56;84.70;101928.23;104865;1291;68051;-54
2023/12/18 02:50:30;;;;;;;;;;;;;;;6.58;84.50;101922.45;104903;1289;71238;-54
2023/12/18 02:53:17;;;;;;;;;;;;;;;6.58;85.07;101913.20;104883;1293;60229;-54
2023/12/18 02:56:04;;;;;;;;;;;;;;;6.58;85.32;101915.77;104847;1290;60475;-55
2023/12/18 02:58:50;;;;;;;;;;;;;;;6.56;84.30;101919.50;105686;1291;72328;-55
2023/12/18 03:01:36;;;;;;;;;;;;;;;6.56;83.79;101931.14;105001;1289;67255;-54
2023/12/18 03:04:23;;;;;;;;;;;;;;;6.58;84.44;101929.98;104881;1292;70635;-54
2023/12/18 03:07:09;;;;;;;;;;;;;;;6.59;84.03;101924.02;104973;1289;60344;-55
2023/12/18 03:09:56;;;;;;;;;;;;;;;6.60;84.06;101928.83;106377;1288;59018;-55
2023/12/18 03:12:41;;;;;;;;;;;;;;;6.60;83.21;101925.40;106351;1288;73762;-55
2023/12/18 03:15:27;;;;;;;;;;;;;;;6.63;83.46;101920.33;106343;1288;67481;-55
2023/12/18 03:18:13;;;;;;;;;;;;;;;6.64;83.78;101911.09;105150;1289;72479;-55
2023/12/18 03:20:59;;;;;;;;;;;;;;;6.64;83.59;101917.63;104898;1289;60329;-55
2023/12/18 03:23:45;;;;;;;;;;;;;;;6.66;82.93;101918.67;104969;1288;59650;-54
2023/12/18 03:26:31;;;;;;;;;;;;;;;6.70;83.10;101916.88;104998;1288;76531;-52
2023/12/18 03:29:17;;;;;;;;;;;;;;;6.71;82.21;101919.81;104870;1288;67835;-55
2023/12/18 03:32:04;;;;;;;;;;;;;;;6.72;82.20;101922.56;104996;1288;71549;-54
2023/12/18 03:34:50;;;;;;;;;;;;;;;6.73;82.82;101922.08;106409;1288;58139;-56
2023/12/18 03:37:36;;;;;;;;;;;;;;;6.74;81.85;101917.80;105285;1288;60444;-55
2023/12/18 03:40:22;;;;;;;;;;;;;;;6.74;82.10;101920.39;104993;1289;72484;-55
2023/12/18 03:43:08;;;;;;;;;;;;;;;6.75;82.51;101920.92;105078;1289;67152;-55
2023/12/18 03:45:54;;;;;;;;;;;;;;;6.75;83.36;101920.59;104970;1289;70207;-55
2023/12/18 03:48:40;;;;;;;;;;;;;;;6.75;83.30;101921.42;104996;1289;60245;-54
2023/12/18 03:51:26;;;;;;;;;;;;;;;6.75;83.34;101930.16;104993;1288;61703;-55
2023/12/18 03:54:12;;;;;;;;;;;;;;;6.74;83.29;101930.83;104964;1288;75095;-53
2023/12/18 03:56:58;;;;;;;;;;;;;;;6.73;82.93;101934.09;105024;1289;67174;-54
2023/12/18 03:59:44;;;;;;;;;;;;;;;6.74;83.06;101934.95;105002;1288;72051;-55
2023/12/18 04:02:31;;;;;;;;;;;;;;;6.75;82.81;101931.88;104998;1288;60350;-55
2023/12/18 04:05:17;;;;;;;;;;;;;;;6.75;83.26;101932.06;105000;1289;60397;-54
2023/12/18 04:08:03;;;;;;;;;;;;;;;6.74;82.62;101932.55;105053;1290;72389;-55
2023/12/18 04:10:49;;;;;;;;;;;;;;;6.74;82.71;101928.80;104993;1291;67968;-52
2023/12/18 04:13:35;;;;;;;;;;;;;;;6.76;81.87;101928.64;104989;1291;71266;-54
2023/12/18 04:16:22;;;;;;;;;;;;;;;6.78;82.31;101925.92;105027;1289;60423;-53
2023/12/18 04:19:08;;;;;;;;;;;;;;;6.80;82.84;101931.45;104979;1288;64319;-55
2023/12/18 04:21:54;;;;;;;;;;;;;;;6.78;82.75;101926.96;105018;1289;75189;-54
2023/12/18 04:24:40;;;;;;;;;;;;;;;6.77;82.13;101923.51;105021;1289;69807;-55
2023/12/18 04:27:26;;;;;;;;;;;;;;;6.77;82.93;101920.93;105011;1289;71743;-54
2023/12/18 04:30:12;;;;;;;;;;;;;;;6.76;82.33;101922.64;104905;1289;61541;-54
2023/12/18 04:32:59;;;;;;;;;;;;;;;6.76;83.15;101928.29;104942;1292;60357;-53
2023/12/18 04:35:45;;;;;;;;;;;;;;;6.75;82.77;101932.23;104965;1290;74315;-55
2023/12/18 04:38:31;;;;;;;;;;;;;;;6.75;82.52;101938.05;104937;1292;67655;-55
2023/12/18 04:41:18;;;;;;;;;;;;;;;6.75;82.78;101934.80;104894;1289;71230;-55
2023/12/18 04:44:05;;;;;;;;;;;;;;;6.75;82.69;101941.84;104931;1289;60468;-54
2023/12/18 04:46:52;;;;;;;;;;;;;;;6.76;82.52;101941.66;104953;1289;60427;-54
2023/12/18 04:49:38;;;;;;;;;;;;;;;6.77;82.20;101947.33;104964;1288;75128;-55
2023/12/18 04:52:24;;;;;;;;;;;;;;;6.78;83.00;101943.75;105042;1289;67283;-54
2023/12/18 04:55:10;;;;;;;;;;;;;;;6.77;83.10;101941.34;104998;1289;72169;-54
2023/12/18 04:57:56;;;;;;;;;;;;;;;6.76;82.81;101932.92;104832;1290;60447;-53
2023/12/18 05:00:42;;;;;;;;;;;;;;;6.75;82.49;101929.67;104675;1288;308612;-53
2023/12/18 05:03:28;;;;;;;;;;;;;;;6.78;82.92;101925.74;104946;1289;73078;-54
2023/12/18 05:06:19;;;;;;;;;;;;;;;6.78;82.73;101920.09;104941;1289;68886;-54
2023/12/18 05:09:05;;;;;;;;;;;;;;;6.77;82.99;101924.54;104961;1294;71516;-54
2023/12/18 05:11:51;;;;;;;;;;;;;;;6.77;82.77;101917.84;104668;1292;60450;-54
2023/12/18 05:14:37;;;;;;;;;;;;;;;6.78;83.05;101919.74;104844;1289;60521;-53
2023/12/18 05:17:24;;;;;;;;;;;;;;;6.77;82.88;101915.11;104857;1289;72376;-54
2023/12/18 05:20:12;;;;;;;;;;;;;;;6.78;82.92;101915.46;104847;1289;68507;-54
2023/12/18 05:22:58;;;;;;;;;;;;;;;6.77;83.10;101911.17;104843;1293;71292;-54
2023/12/18 05:25:44;;;;;;;;;;;;;;;6.77;83.08;101907.23;104804;1291;60489;-54
2023/12/18 05:28:31;;;;;;;;;;;;;;;6.77;83.15;101908.77;104840;1290;60887;-54
2023/12/18 05:31:18;;;;;;;;;;;;;;;6.77;83.48;101912.54;104855;1289;72534;-54
2023/12/18 05:34:04;;;;;;;;;;;;;;;6.77;83.55;101916.30;104810;1289;67806;-54
2023/12/18 05:36:50;;;;;;;;;;;;;;;6.77;83.74;101916.99;104877;1289;71567;-54
2023/12/18 05:39:37;;;;;;;;;;;;;;;6.77;83.73;101915.98;104862;1289;59622;-54
2023/12/18 05:42:23;;;;;;;;;;;;;;;6.78;83.83;101908.61;104848;1289;60141;-53
2023/12/18 05:45:09;;;;;;;;;;;;;;;6.77;83.79;101909.96;104803;1289;73581;-54
2023/12/18 05:47:55;;;;;;;;;;;;;;;6.77;83.91;101904.81;104881;1293;68272;-53
2023/12/18 05:50:41;;;;;;;;;;;;;;;6.76;83.92;101901.39;104820;1289;72235;-53
2023/12/18 05:53:27;;;;;;;;;;;;;;;6.76;83.98;101904.14;104776;1289;60486;-54
2023/12/18 05:56:14;;;;;;;;;;;;;;;6.76;83.75;101907.89;104803;1289;62940;-54
2023/12/18 05:59:00;;;;;;;;;;;;;;;6.77;83.90;101904.99;106222;1289;72848;-54
2023/12/18 06:01:46;;;;;;;;;;;;;;;6.77;83.75;101916.48;106246;1288;67426;-55
2023/12/18 06:04:32;;;;;;;;;;;;;;;6.79;83.65;101923.20;106239;1289;72305;-55
2023/12/18 06:07:17;;;;;;;;;;;;;;;6.81;83.73;101924.95;106283;1289;58687;-54
2023/12/18 06:10:03;;;;;;;;;;;;;;;6.82;83.80;101929.60;106240;1289;58836;-55
2023/12/18 06:12:51;;;;;;;;;;;;;;;6.81;83.64;101933.02;106057;1289;231498;-56
2023/12/18 06:15:37;;;;;;;;;;;;;;;6.84;83.74;101932.90;106213;1289;67404;-55
2023/12/18 06:18:22;;;;;;;;;;;;;;;6.83;83.51;101934.42;106227;1289;72422;-55
2023/12/18 06:21:08;;;;;;;;;;;;;;;6.85;83.74;101944.40;106184;1292;58542;-53
2023/12/18 06:23:54;;;;;;;;;;;;;;;6.85;83.61;101938.23;106253;1288;58697;-54
2023/12/18 06:26:40;;;;;;;;;;;;;;;6.85;83.56;101943.54;106239;1289;72349;-54
2023/12/18 06:29:26;;;;;;;;;;;;;;;6.85;83.55;101948.35;106207;1289;67325;-54
2023/12/18 06:32:13;;;;;;;;;;;;;;;6.85;83.71;101941.84;106219;1289;72508;-55
2023/12/18 06:34:59;;;;;;;;;;;;;;;6.85;83.70;101939.27;106251;1289;58162;-54
2023/12/18 06:37:45;;;;;;;;;;;;;;;6.86;83.65;101937.23;106169;1290;58795;-54
2023/12/18 06:40:31;;;;;;;;;;;;;;;6.87;83.88;101931.41;106238;1289;73548;-55
2023/12/18 06:43:16;;;;;;;;;;;;;;;6.86;83.87;101950.79;106203;1289;67116;-53
2023/12/18 06:46:03;;;;;;;;;;;;;;;6.86;83.87;101950.08;106211;1289;71309;-55
2023/12/18 06:48:49;;;;;;;;;;;;;;;6.84;83.84;101949.20;106215;1289;58247;-55
2023/12/18 06:51:35;;;;;;;;;;;;;;;6.85;84.03;101946.29;106307;1289;59656;-55
2023/12/18 06:54:20;;;;;;;;;;;;;;;6.85;84.01;101940.13;106282;1289;73620;-55
2023/12/18 06:57:07;;;;;;;;;;;;;;;6.85;84.06;101945.27;106349;1290;67534;-54
2023/12/18 06:59:53;;;;;;;;;;;;;;;6.84;84.03;101945.93;106378;1289;71372;-55
2023/12/18 07:02:38;;;;;;;;;;;;;;;6.84;84.09;101947.81;106375;1289;58342;-55
2023/12/18 07:05:26;;;;;;;;;;;;;;;6.82;84.07;101953.09;106402;1288;60383;-55
2023/12/18 07:08:12;;;;;;;;;;;;;;;6.83;84.13;101958.42;106406;1289;73070;-54
2023/12/18 07:10:58;;;;;;;;;;;;;;;6.83;84.17;101965.79;106375;1289;67266;-55
2023/12/18 07:13:44;;;;;;;;;;;;;;;6.83;84.18;101969.22;106310;1289;72338;-53
2023/12/18 07:16:30;;;;;;;;;;;;;;;6.83;84.30;101967.67;104898;1289;60453;-54
2023/12/18 07:19:16;;;;;;;;;;;;;;;6.82;84.37;101963.52;104974;1290;59893;-54
2023/12/18 07:22:03;;;;;;;;;;;;;;;6.82;84.33;101956.17;105024;1291;72961;-53
2023/12/18 07:24:49;;;;;;;;;;;;;;;6.82;84.42;101944.02;105031;1289;68749;-54
2023/12/18 07:27:35;;;;;;;;;;;;;;;6.81;84.36;101944.16;105071;1290;72300;-54
2023/12/18 07:30:21;;;;;;;;;;;;;;;6.82;84.34;101949.14;105026;1289;60914;-54
2023/12/18 07:33:07;;;;;;;;;;;;;;;6.82;84.55;101959.77;105103;1289;60379;-54
2023/12/18 07:35:53;;;;;;;;;;;;;;;6.83;84.44;101955.84;105098;1289;72513;-54
2023/12/18 07:38:40;;;;;;;;;;;;;;;6.83;84.44;101954.65;105108;1289;67318;-53
2023/12/18 07:41:30;;;;;;;;;;;;;;;6.84;84.39;101954.33;105102;1289;72361;-53
2023/12/18 07:44:16;;;;;;;;;;;;;;;6.86;84.52;101953.84;105033;1289;60446;-54
2023/12/18 07:47:06;;;;;;;;;;;;;;;6.87;84.48;101954.58;105107;1289;60261;-53
2023/12/18 07:49:52;;;;;;;;;;;;;;;6.87;84.44;101960.39;105118;1289;74035;-53
2023/12/18 07:52:38;;;;;;;;;;;;;;;6.88;84.45;101965.05;105098;1289;67225;-53
2023/12/18 07:55:25;;;;;;;;;;;;;;;6.90;84.36;101965.59;105025;1289;72406;-54
2023/12/18 07:58:11;;;;;;;;;;;;;;;6.92;84.59;101959.30;105082;1289;61099;-54
2023/12/18 08:00:57;;;;;;;;;;;;;;;6.96;84.49;101965.72;105139;1289;60807;-54
2023/12/18 08:03:43;;;;;;;;;;;;;;;7.01;84.61;101966.33;105096;1289;72347;-53
2023/12/18 08:06:29;;;;;;;;;;;;;;;7.06;84.42;101973.63;105086;1292;68362;-53
2023/12/18 08:09:15;;;;;;;;;;;;;;;7.05;84.33;101966.41;105089;1288;74934;-53
2023/12/18 08:12:02;;;;;;;;;;;;;;;7.06;84.50;101965.23;105078;1291;60327;-53
2023/12/18 08:14:48;;;;;;;;;;;;;;;7.05;84.41;101968.45;105088;1288;60449;-53
2023/12/18 08:17:38;;;;;;;;;;;;;;;7.05;84.38;101971.22;105069;1288;73477;-53
2023/12/18 08:20:25;;;;;;;;;;;;;;;7.06;84.46;101973.46;105046;1289;67268;-54
2023/12/18 08:23:11;;;;;;;;;;;;;;;7.04;84.50;101972.58;105127;1289;75379;-54
2023/12/18 08:25:57;;;;;;;;;;;;;;;7.01;84.53;101978.00;105114;1291;60345;-53
2023/12/18 08:28:44;;;;;;;;;;;;;;;7.01;84.57;101970.96;105086;1289;60473;-51
2023/12/18 08:31:30;;;;;;;;;;;;;;;6.99;84.73;101970.91;105067;1288;76978;-53
2023/12/18 08:34:16;;;;;;;;;;;;;;;7.00;84.75;101969.75;105097;1291;66177;-53
2023/12/18 08:37:03;;;;;;;;;;;;;;;6.99;84.82;101972.11;105015;1289;73977;-53
2023/12/18 08:39:49;;;;;;;;;;;;;;;7.00;84.81;101977.63;105073;1289;59117;-53
2023/12/18 08:42:35;;;;;;;;;;;;;;;6.98;84.98;101969.70;104991;1292;60386;-55
2023/12/18 08:45:22;;;;;;;;;;;;;;;6.98;84.92;101969.35;105114;1289;75146;-52
2023/12/18 08:48:08;;;;;;;;;;;;;;;6.97;85.19;101968.15;105173;1289;67405;-52
2023/12/18 08:50:54;;;;;;;;;;;;;;;6.95;85.52;101973.08;105114;1288;70345;-51
2023/12/18 08:53:40;;;;;;;;;;;;;;;6.97;85.45;101969.33;105073;1289;62444;-53
2023/12/18 08:56:26;;;;;;;;;;;;;;;6.98;85.55;101970.55;105094;1288;60318;-54
2023/12/18 08:59:12;;;;;;;;;;;;;;;6.96;85.50;101968.81;105008;1291;73822;-53
2023/12/18 09:01:58;;;;;;;;;;;;;;;6.99;85.53;101970.92;105039;1288;67422;-54
2023/12/18 09:04:45;;;;;;;;;;;;;;;7.03;85.53;101965.34;105076;1289;71276;-55
2023/12/18 09:07:31;;;;;;;;;;;;;;;7.04;85.38;101953.88;105048;1290;61567;-53
2023/12/18 09:10:18;;;;;;;;;;;;;;;7.05;85.34;101955.78;105051;1288;60325;-55
2023/12/18 09:13:04;;;;;;;;;;;;;;;7.07;85.38;101946.73;105084;1289;72844;-54
2023/12/18 09:15:50;;;;;;;;;;;;;;;7.09;85.36;101941.13;105039;1291;67810;-54
2023/12/18 09:18:36;;;;;;;;;;;;;;;7.09;85.29;101935.81;104991;1292;71688;-52
2023/12/18 09:21:23;;;;;;;;;;;;;;;7.11;85.08;101942.88;105024;1289;60440;-51
2023/12/18 09:24:09;;;;;;;;;;;;;;;7.10;85.19;101945.77;105060;1289;60386;-55
2023/12/18 09:26:55;;;;;;;;;;;;;;;7.16;85.20;101945.89;105027;1289;72441;-55
2023/12/18 09:29:41;;;;;;;;;;;;;;;7.22;85.09;101950.64;105017;1289;67167;-54
2023/12/18 09:32:27;;;;;;;;;;;;;;;7.29;85.15;101950.40;105004;1289;71759;-54
2023/12/18 09:35:14;;;;;;;;;;;;;;;7.27;84.69;101952.42;105052;1289;60956;-54
2023/12/18 09:38:00;;;;;;;;;;;;;;;7.26;84.81;101950.71;105007;1289;60334;-55
2023/12/18 09:40:46;;;;;;;;;;;;;;;7.24;84.76;101958.23;105025;1289;73714;-53
2023/12/18 09:43:32;;;;;;;;;;;;;;;7.22;84.87;101955.61;105053;1289;67443;-55
2023/12/18 09:46:22;;;;;;;;;;;;;;;7.27;84.91;101949.17;105030;1289;74081;-53
2023/12/18 09:49:09;;;;;;;;;;;;;;;7.31;84.78;101958.84;104924;1289;60428;-52
2023/12/18 09:52:06;;;;;;;;;;;;;;;7.32;84.66;101960.23;104974;1289;60495;-54
2023/12/18 09:54:52;;;;;;;;;;;;;;;7.27;84.71;101951.41;106239;1290;72353;-53
2023/12/18 09:57:38;;;;;;;;;;;;;;;7.26;84.79;101949.34;105088;1289;67367;-55
2023/12/18 10:00:25;;;;;;;;;;;;;;;7.16;84.80;101944.17;104933;1289;71249;-54
2023/12/18 10:03:13;;;;;;;;;;;;;;;7.10;85.00;101941.48;105127;1289;60387;-52
2023/12/18 10:06:00;;;;;;;;;;;;;;;7.09;85.06;101944.39;105085;1288;59282;-52
2023/12/18 10:08:49;;;;;;;;;;;;;;;7.08;85.15;101948.99;105045;1288;72378;-54
2023/12/18 10:11:35;;;;;;;;;;;;;;;7.06;85.12;101932.14;105073;1289;74385;-54
2023/12/18 10:14:23;;;;;;;;;;;;;;;7.01;85.21;101934.62;105070;1291;72056;-54
2023/12/18 10:17:09;;;;;;;;;;;;;;;7.00;85.16;101936.66;105083;1289;60331;-54
2023/12/18 10:19:55;;;;;;;;;;;;;;;6.98;85.40;101939.19;105045;1289;60342;-55
2023/12/18 10:22:42;;;;;;;;;;;;;;;6.98;85.42;101932.67;105052;1292;72359;-55
2023/12/18 10:25:29;;;;;;;;;;;;;;;6.99;85.27;101939.20;105090;1289;67201;-55
2023/12/18 10:28:16;;;;;;;;;;;;;;;6.98;85.38;101929.59;105030;1289;75878;-54
2023/12/18 10:31:04;;;;;;;;;;;;;;;6.97;85.48;101922.72;104978;1290;60354;-53
2023/12/18 10:33:57;;;;;;;;;;;;;;;7.02;85.43;101919.89;102466;1288;10001850;-55
2023/12/18 10:36:43;;;;;;;;;;;;;;;7.07;85.40;101925.30;106429;1289;72322;-56
2023/12/18 10:39:30;;;;;;;;;;;;;;;7.09;85.27;101935.29;106353;1288;68547;-55
2023/12/18 10:42:31;;;;;;;;;;;;;;;7.08;85.22;101930.64;106149;1289;72592;-55
2023/12/18 10:45:18;;;;;;;;;;;;;;;7.08;85.32;101922.25;106313;1289;58251;-55
2023/12/18 10:48:04;;;;;;;;;;;;;;;7.15;85.41;101919.29;106376;1288;58806;-55
2023/12/18 10:50:51;;;;;;;;;;;;;;;7.21;85.25;101916.66;106357;1289;73810;-56
2023/12/18 10:53:38;;;;;;;;;;;;;;;7.24;85.14;101915.34;98947;1289;10001583;-55
2023/12/18 10:56:24;;;;;;;;;;;;;;;7.23;84.92;101920.83;106307;1290;58296;-54
2023/12/18 10:59:11;;;;;;;;;;;;;;;7.23;85.05;101917.05;106332;1289;58656;-55
2023/12/18 11:01:57;;;;;;;;;;;;;;;7.23;84.91;101919.45;98943;1289;10001921;-56
2023/12/18 11:04:45;;;;;;;;;;;;;;;7.21;84.95;101914.09;106329;1289;58411;-55
2023/12/18 11:07:31;;;;;;;;;;;;;;;7.21;85.08;101912.04;106284;1288;60032;-55
2023/12/18 11:10:17;;;;;;;;;;;;;;;7.24;85.18;101910.88;106263;1289;72555;-54
2023/12/18 11:13:19;;;;;;;;;;;;;;;7.26;84.87;101911.26;106364;1289;67186;-55
2023/12/18 11:16:05;;;;;;;;;;;;;;;7.21;84.82;101907.57;106299;1289;71440;-56
2023/12/18 11:19:00;;;;;;;;;;;;;;;7.19;84.93;101900.34;106322;1289;58599;-56
2023/12/18 11:21:49;;;;;;;;;;;;;;;7.19;85.01;101900.84;98974;1291;10001154;-56
2023/12/18 11:24:36;;;;;;;;;;;;;;;7.16;85.06;101895.81;106289;1289;71829;-55
2023/12/18 11:27:22;;;;;;;;;;;;;;;7.18;85.18;101891.23;106294;1289;58566;-55
2023/12/18 11:30:29;;;;;;;;;;;;;;;7.21;85.00;101893.84;99774;1289;10001988;-55
2023/12/18 11:33:15;;;;;;;;;;;;;;;7.23;85.20;101881.54;106293;1289;67852;-54
2023/12/18 11:36:01;;;;;;;;;;;;;;;7.29;84.83;101882.13;106337;1289;71145;-56
2023/12/18 11:38:48;;;;;;;;;;;;;;;7.32;84.81;101875.67;106354;1289;59012;-56
2023/12/18 11:41:39;;;;;;;;;;;;;;;7.37;84.82;101871.81;98988;1289;10001970;-55
2023/12/18 11:44:27;;;;;;;;;;;;;;;7.41;84.57;101875.64;106334;1290;68484;-55
2023/12/18 11:47:13;;;;;;;;;;;;;;;7.36;84.35;101873.51;106361;1289;71573;-55
2023/12/18 11:49:59;;;;;;;;;;;;;;;7.39;84.54;101867.04;106286;1292;57602;-56
2023/12/18 11:52:48;;;;;;;;;;;;;;;7.36;84.48;101871.27;98971;1289;10001335;-55
2023/12/18 11:55:37;;;;;;;;;;;;;;;7.37;84.67;101874.21;106328;1290;71277;-56
2023/12/18 11:58:27;;;;;;;;;;;;;;;7.38;84.83;101881.24;105013;1289;60697;-53
2023/12/18 12:01:13;;;;;;;;;;;;;;;7.38;84.67;101879.71;97589;1292;10002074;-55
2023/12/18 12:03:59;;;;;;;;;;;;;;;7.37;84.71;101875.25;104931;1289;67400;-54
2023/12/18 12:06:46;;;;;;;;;;;;;;;7.32;84.66;101874.81;104917;1289;75116;-55
2023/12/18 12:09:32;;;;;;;;;;;;;;;7.28;84.72;101867.71;104877;1290;60220;-54
2023/12/18 12:12:18;;;;;;;;;;;;;;;7.24;85.04;101870.25;97651;1289;10001502;-53
2023/12/18 12:15:04;;;;;;;;;;;;;;;7.25;84.89;101879.69;104956;1288;68098;-55
2023/12/18 12:17:51;;;;;;;;;;;;;;;7.23;84.90;101882.23;104956;1293;71427;-55
2023/12/18 12:20:37;;;;;;;;;;;;;;;7.22;85.02;101884.96;104898;1288;60361;-54
2023/12/18 12:23:26;;;;;;;;;;;;;;;7.23;85.06;101886.16;105429;1289;62355;-55
2023/12/18 12:26:13;;;;;;;;;;;;;;;7.22;85.09;101892.84;106280;1291;72612;-55
2023/12/18 12:28:58;;;;;;;;;;;;;;;7.19;85.34;101894.66;106288;1289;67312;-55
2023/12/18 12:31:44;;;;;;;;;;;;;;;7.16;85.56;101892.22;105476;1288;309739;-53
2023/12/18 12:34:30;;;;;;;;;;;;;;;7.14;85.52;101894.40;104973;1288;60472;-54
2023/12/18 12:37:16;;;;;;;;;;;;;;;7.09;86.19;101900.99;104943;1295;60344;-55
2023/12/18 12:40:05;;;;;;;;;;;;;;;7.04;86.23;101906.90;104975;1289;72572;-55
2023/12/18 12:42:52;;;;;;;;;;;;;;;6.97;86.59;101906.44;104912;1291;67174;-54
2023/12/18 12:45:38;;;;;;;;;;;;;;;6.95;86.60;101905.87;105725;1292;76802;-54
2023/12/18 12:48:24;;;;;;;;;;;;;;;6.88;87.39;101904.71;105885;1291;59260;-54
2023/12/18 12:51:10;;;;;;;;;;;;;;;6.85;87.25;101900.02;104862;1291;60455;-53
2023/12/18 12:53:56;;;;;;;;;;;;;;;6.83;87.19;101902.55;104923;1288;73237;-54
2023/12/18 12:56:45;;;;;;;;;;;;;;;6.82;87.31;101903.04;105280;1290;72994;-54
2023/12/18 12:59:31;;;;;;;;;;;;;;;6.79;87.86;101900.92;105517;1289;72377;-53
2023/12/18 13:02:17;;;;;;;;;;;;;;;6.77;88.19;101900.02;104859;1291;60083;-52
2023/12/18 13:05:07;;;;;;;;;;;;;;;6.72;88.81;101894.64;104916;1289;59895;-55
2023/12/18 13:08:00;;;;;;;;;;;;;;;6.70;88.43;101898.35;104899;1290;72392;-55
2023/12/18 13:10:46;;;;;;;;;;;;;;;6.68;88.51;101902.95;105394;1296;67144;-54
2023/12/18 13:13:32;;;;;;;;;;;;;;;6.63;88.91;101904.41;104883;1289;71247;-53
2023/12/18 13:16:18;;;;;;;;;;;;;;;6.59;88.57;101908.08;104832;1295;60571;-54
2023/12/18 13:19:04;;;;;;;;;;;;;;;6.56;88.88;101906.98;104813;1292;60409;-52
2023/12/18 13:21:52;;;;;;;;;;;;;;;6.54;88.72;101912.25;105318;1290;72311;-55
2023/12/18 13:24:38;;;;;;;;;;;;;;;6.53;89.73;101919.94;104881;1289;68895;-54
2023/12/18 13:27:26;;;;;;;;;;;;;;;6.49;89.91;101915.75;104884;1293;73685;-53
2023/12/18 13:30:12;;;;;;;;;;;;;;;6.46;90.86;101917.21;104814;1293;60399;-54
2023/12/18 13:32:58;;;;;;;;;;;;;;;6.42;90.81;101918.16;104828;1292;60458;-55
2023/12/18 13:35:45;;;;;;;;;;;;;;;6.38;91.25;101915.85;104855;1288;72423;-54
2023/12/18 13:38:32;;;;;;;;;;;;;;;6.36;90.57;101908.77;104804;1289;70280;-55
2023/12/18 13:41:18;;;;;;;;;;;;;;;6.36;92.28;101906.02;104828;1289;71240;-54
2023/12/18 13:44:05;;;;;;;;;;;;;;;6.34;92.41;101912.31;104791;1289;60446;-55
2023/12/18 13:46:51;;;;;;;;;;;;;;;6.30;92.42;101913.79;104864;1291;60296;-52
2023/12/18 13:49:37;;;;;;;;;;;;;;;6.29;91.89;101913.59;104823;1289;73556;-54
2023/12/18 13:52:25;;;;;;;;;;;;;;;6.29;91.51;101917.35;104891;1289;68126;-54
2023/12/18 13:55:12;;;;;;;;;;;;;;;6.28;91.35;101912.55;104858;1289;71189;-53
2023/12/18 13:57:58;;;;;;;;;;;;;;;6.28;91.00;101914.61;104934;1292;59196;-54
2023/12/18 14:00:45;;;;;;;;;;;;;;;6.27;91.87;101913.54;106328;1289;60004;-56
2023/12/18 14:03:31;;;;;;;;;;;;;;;6.26;92.65;101919.70;106249;1289;72618;-56
2023/12/18 14:06:18;;;;;;;;;;;;;;;6.24;91.96;101915.70;106306;1289;67690;-56
2023/12/18 14:09:04;;;;;;;;;;;;;;;6.25;93.60;101919.48;106316;1288;70271;-55
2023/12/18 14:11:50;;;;;;;;;;;;;;;6.24;93.16;101916.73;106244;1289;58152;-55
2023/12/18 14:14:36;;;;;;;;;;;;;;;6.25;91.43;101916.91;106248;1289;59922;-56